Samadhi — ZCOY9 — position and weather

sailwx.info

Track history (hours):
 
Tides and Currents Weather Stations Pressure Air Temp Water Temp Dewpoint Dewpoint Depression Visibility Wind Speed Wind Dir Waves Ship Positions

Samadhi

Last reported at 2015-Jul-06 20:33 UTC. Time now 2015-Jul-08 04:23 UTC.
Position N 40°34' E 014°25'.

Length 61 m; draft 3.3 m.

Type: Pleasure craft. MMSI: 319420000.

Date/timePositionNaut miles runAvg speedWind from/ knotsBaromVisibWave heightAir tempDewpointWater temp
2015-Jul-06 20:33N 40°34' E 014°25'8 0.3
2015-Jul-05 14:21N 40°32' E 014°15'0 0.0
2015-Jul-05 13:33N 40°32' E 014°15'0 0.0
2015-Jul-05 12:33N 40°32' E 014°15'0 0.0
2015-Jul-05 11:03N 40°32' E 014°15'0 0.0
2015-Jul-05 08:27N 40°32' E 014°15'0 0.0
2015-Jul-05 07:33N 40°32' E 014°15'0 0.0
2015-Jul-05 06:33N 40°32' E 014°15'0 0.0
2015-Jul-05 05:27N 40°32' E 014°15'0 0.0
2015-Jul-05 04:33N 40°32' E 014°15'0 0.0
2015-Jul-05 03:18N 40°32' E 014°15'0 0.0
2015-Jul-05 02:27N 40°32' E 014°15'0 0.0
2015-Jul-05 01:33N 40°32' E 014°15'0 0.0
2015-Jul-05 00:30N 40°32' E 014°15'0 0.0
2015-Jul-04 23:30N 40°32' E 014°15'0 0.0
2015-Jul-04 16:24N 40°32' E 014°15'0 0.0
2015-Jul-04 15:30N 40°32' E 014°15'5 5.0
2015-Jul-04 14:33N 40°37' E 014°16'1212.5
2015-Jul-04 13:33N 40°49' E 014°14'0 0.4
2015-Jul-04 12:29N 40°49' E 014°14'0 0.0
2015-Jul-04 11:32N 40°49' E 014°14'1 0.6
2015-Jul-04 10:33N 40°49' E 014°14'1514.7
2015-Jul-04 09:33N 40°34' E 014°17'3 2.5
2015-Jul-04 08:28N 40°32' E 014°15'0 0.0
2015-Jul-04 05:25N 40°32' E 014°15'0 0.0
2015-Jul-04 02:31N 40°32' E 014°15'0 0.0
2015-Jul-04 01:28N 40°32' E 014°15'0 0.0
2015-Jul-04 00:31N 40°32' E 014°15'0 0.0
2015-Jul-03 18:09N 40°32' E 014°15'6 9.5
2015-Jul-03 17:33N 40°37' E 014°19'9 9.3
2015-Jul-03 16:32N 40°43' E 014°28'0 0.1
2015-Jul-03 15:30N 40°43' E 014°29'0 0.0
2015-Jul-03 14:21N 40°43' E 014°29'0 0.0
2015-Jul-03 13:30N 40°43' E 014°29'0 0.0
2015-Jul-03 12:21N 40°43' E 014°29'0 0.0
2015-Jul-03 11:33N 40°43' E 014°29'0 0.0
2015-Jul-03 10:33N 40°43' E 014°29'0 0.0
2015-Jul-03 09:33N 40°43' E 014°29'0 0.0
2015-Jul-03 08:33N 40°43' E 014°29'0 0.0
2015-Jul-03 07:30N 40°43' E 014°29'0 0.0
2015-Jul-03 06:33N 40°43' E 014°29'0 0.0
2015-Jul-03 05:33N 40°43' E 014°29'0 0.0
2015-Jul-03 04:33N 40°43' E 014°29'0 0.0
2015-Jul-03 02:33N 40°43' E 014°29'0 0.0
2015-Jul-03 01:33N 40°43' E 014°29'0 0.0
2015-Jul-03 00:15N 40°43' E 014°29'0 0.0
2015-Jul-02 23:33N 40°43' E 014°29'0 0.0
2015-Jul-02 22:33N 40°43' E 014°29'0 0.0
2015-Jul-02 21:33N 40°43' E 014°29'0 0.0
2015-Jul-02 20:24N 40°43' E 014°29'0 0.0
2015-Jul-02 19:21N 40°43' E 014°29'0 0.0
2015-Jul-02 18:33N 40°43' E 014°29'0 0.0
2015-Jul-02 14:24N 40°43' E 014°29'0 0.0
2015-Jul-02 13:33N 40°43' E 014°29'0 0.0
2015-Jul-02 12:33N 40°43' E 014°29'0 0.0
2015-Jul-02 11:21N 40°43' E 014°29'0 0.0
2015-Jul-02 10:24N 40°43' E 014°29'0 0.0
2015-Jul-02 09:33N 40°43' E 014°29'0 0.0
2015-Jul-02 04:27N 40°43' E 014°29'0 0.0
2015-Jul-02 03:30N 40°43' E 014°29'0 0.0
2015-Jul-02 02:15N 40°43' E 014°29'0 0.0
2015-Jul-02 01:33N 40°43' E 014°29'0 0.0
2015-Jul-02 00:33N 40°43' E 014°29'0 0.0
2015-Jul-01 23:30N 40°43' E 014°29'0 0.0
2015-Jul-01 22:33N 40°43' E 014°29'0 0.0
2015-Jul-01 21:27N 40°43' E 014°29'0 0.0
2015-Jul-01 20:33N 40°43' E 014°29'0 0.0
2015-Jul-01 19:09N 40°43' E 014°29'0 0.0
2015-Jul-01 18:33N 40°43' E 014°29'0 0.0
2015-Jul-01 17:09N 40°43' E 014°29'0 0.0
2015-Jul-01 16:15N 40°43' E 014°29'0 0.0
2015-Jul-01 15:33N 40°43' E 014°29'0 0.0
2015-Jul-01 14:33N 40°43' E 014°29'0 0.0
2015-Jul-01 13:33N 40°43' E 014°29'0 0.0
2015-Jul-01 12:33N 40°43' E 014°29'0 0.0
2015-Jul-01 11:33N 40°43' E 014°29'0 0.0
2015-Jul-01 10:27N 40°43' E 014°29'0 0.0
2015-Jul-01 09:33N 40°43' E 014°29'0 0.0
2015-Jul-01 08:21N 40°43' E 014°29'0 0.0
2015-Jul-01 03:27N 40°43' E 014°29'0 0.0
2015-Jul-01 02:33N 40°43' E 014°29'0 0.0
2015-Jul-01 01:30N 40°43' E 014°29'0 0.0
2015-Jul-01 00:33N 40°43' E 014°29'0 0.0
2015-Jun-30 22:15N 40°43' E 014°29'0 0.0
2015-Jun-30 21:27N 40°43' E 014°29'0 0.0
2015-Jun-30 18:30N 40°43' E 014°29'0 0.0
2015-Jun-30 16:27N 40°43' E 014°29'0 0.0
2015-Jun-30 13:30N 40°43' E 014°29'0 0.0
2015-Jun-30 12:27N 40°43' E 014°29'0 0.0
2015-Jun-30 11:21N 40°43' E 014°29'0 0.0
2015-Jun-30 10:30N 40°43' E 014°29'0 0.0
2015-Jun-30 09:18N 40°43' E 014°29'0 0.0
2015-Jun-30 08:09N 40°43' E 014°29'0 0.0
2015-Jun-29 15:24N 40°43' E 014°29'0 0.0
2015-Jun-29 14:24N 40°43' E 014°29'0 0.0
2015-Jun-29 13:33N 40°43' E 014°29'0 0.0
2015-Jun-29 12:24N 40°43' E 014°29'0 0.0
2015-Jun-29 00:12N 40°43' E 014°29'0 0.0
2015-Jun-28 22:18N 40°43' E 014°29'0 0.0
2015-Jun-28 21:30N 40°43' E 014°29'0 0.0
2015-Jun-28 20:06N 40°43' E 014°29'0 0.0
2015-Jun-28 17:24N 40°43' E 014°29'0 0.0
2015-Jun-28 16:30N 40°43' E 014°29'0 0.0
2015-Jun-28 13:33N 40°43' E 014°29'6 0.6
2015-Jun-28 03:19N 40°40' E 014°21'1011.1
2015-Jun-28 02:25N 40°30' E 014°20'14012.9
2015-Jun-27 15:33N 38°23' E 015°39'9 9.6
2015-Jun-27 14:34N 38°14' E 015°38'1111.2
2015-Jun-27 13:33N 38°03' E 015°36'1110.9
2015-Jun-27 12:34N 37°53' E 015°41'1413.6
2015-Jun-27 11:32N 37°48' E 015°57'  
Track history (hours):
 
Tides and Currents Weather Stations Pressure Air Temp Water Temp Dewpoint Dewpoint Depression Visibility Wind Speed Wind Dir Waves Ship Positions

Samadhi

Last reported at 2015-Jul-06 20:33 UTC. Time now 2015-Jul-08 04:23 UTC.
Position N 40°34' E 014°25'.

Length 61 m; draft 3.3 m.

Type: Pleasure craft. MMSI: 319420000.

Date/timePositionNaut miles runAvg speedWind from/ knotsBaromVisibWave heightAir tempDewpointWater temp
2015-Jul-06 20:33N 40°34' E 014°25'8 0.3
2015-Jul-05 14:21N 40°32' E 014°15'0 0.0
2015-Jul-05 13:33N 40°32' E 014°15'0 0.0
2015-Jul-05 12:33N 40°32' E 014°15'0 0.0
2015-Jul-05 11:03N 40°32' E 014°15'0 0.0
2015-Jul-05 08:27N 40°32' E 014°15'0 0.0
2015-Jul-05 07:33N 40°32' E 014°15'0 0.0
2015-Jul-05 06:33N 40°32' E 014°15'0 0.0
2015-Jul-05 05:27N 40°32' E 014°15'0 0.0
2015-Jul-05 04:33N 40°32' E 014°15'0 0.0
2015-Jul-05 03:18N 40°32' E 014°15'0 0.0
2015-Jul-05 02:27N 40°32' E 014°15'0 0.0
2015-Jul-05 01:33N 40°32' E 014°15'0 0.0
2015-Jul-05 00:30N 40°32' E 014°15'0 0.0
2015-Jul-04 23:30N 40°32' E 014°15'0 0.0
2015-Jul-04 16:24N 40°32' E 014°15'0 0.0
2015-Jul-04 15:30N 40°32' E 014°15'5 5.0
2015-Jul-04 14:33N 40°37' E 014°16'1212.5
2015-Jul-04 13:33N 40°49' E 014°14'0 0.4
2015-Jul-04 12:29N 40°49' E 014°14'0 0.0
2015-Jul-04 11:32N 40°49' E 014°14'1 0.6
2015-Jul-04 10:33N 40°49' E 014°14'1514.7
2015-Jul-04 09:33N 40°34' E 014°17'3 2.5
2015-Jul-04 08:28N 40°32' E 014°15'0 0.0
2015-Jul-04 05:25N 40°32' E 014°15'0 0.0
2015-Jul-04 02:31N 40°32' E 014°15'0 0.0
2015-Jul-04 01:28N 40°32' E 014°15'0 0.0
2015-Jul-04 00:31N 40°32' E 014°15'0 0.0
2015-Jul-03 18:09N 40°32' E 014°15'6 9.5
2015-Jul-03 17:33N 40°37' E 014°19'9 9.3
2015-Jul-03 16:32N 40°43' E 014°28'0 0.1
2015-Jul-03 15:30N 40°43' E 014°29'0 0.0
2015-Jul-03 14:21N 40°43' E 014°29'0 0.0
2015-Jul-03 13:30N 40°43' E 014°29'0 0.0
2015-Jul-03 12:21N 40°43' E 014°29'0 0.0
2015-Jul-03 11:33N 40°43' E 014°29'0 0.0
2015-Jul-03 10:33N 40°43' E 014°29'0 0.0
2015-Jul-03 09:33N 40°43' E 014°29'0 0.0
2015-Jul-03 08:33N 40°43' E 014°29'0 0.0
2015-Jul-03 07:30N 40°43' E 014°29'0 0.0
2015-Jul-03 06:33N 40°43' E 014°29'0 0.0
2015-Jul-03 05:33N 40°43' E 014°29'0 0.0
2015-Jul-03 04:33N 40°43' E 014°29'0 0.0
2015-Jul-03 02:33N 40°43' E 014°29'0 0.0
2015-Jul-03 01:33N 40°43' E 014°29'0 0.0
2015-Jul-03 00:15N 40°43' E 014°29'0 0.0
2015-Jul-02 23:33N 40°43' E 014°29'0 0.0
2015-Jul-02 22:33N 40°43' E 014°29'0 0.0
2015-Jul-02 21:33N 40°43' E 014°29'0 0.0
2015-Jul-02 20:24N 40°43' E 014°29'0 0.0
2015-Jul-02 19:21N 40°43' E 014°29'0 0.0
2015-Jul-02 18:33N 40°43' E 014°29'0 0.0
2015-Jul-02 14:24N 40°43' E 014°29'0 0.0
2015-Jul-02 13:33N 40°43' E 014°29'0 0.0
2015-Jul-02 12:33N 40°43' E 014°29'0 0.0
2015-Jul-02 11:21N 40°43' E 014°29'0 0.0
2015-Jul-02 10:24N 40°43' E 014°29'0 0.0
2015-Jul-02 09:33N 40°43' E 014°29'0 0.0
2015-Jul-02 04:27N 40°43' E 014°29'0 0.0
2015-Jul-02 03:30N 40°43' E 014°29'0 0.0
2015-Jul-02 02:15N 40°43' E 014°29'0 0.0
2015-Jul-02 01:33N 40°43' E 014°29'0 0.0
2015-Jul-02 00:33N 40°43' E 014°29'0 0.0
2015-Jul-01 23:30N 40°43' E 014°29'0 0.0
2015-Jul-01 22:33N 40°43' E 014°29'0 0.0
2015-Jul-01 21:27N 40°43' E 014°29'0 0.0
2015-Jul-01 20:33N 40°43' E 014°29'0 0.0
2015-Jul-01 19:09N 40°43' E 014°29'0 0.0
2015-Jul-01 18:33N 40°43' E 014°29'0 0.0
2015-Jul-01 17:09N 40°43' E 014°29'0 0.0
2015-Jul-01 16:15N 40°43' E 014°29'0 0.0
2015-Jul-01 15:33N 40°43' E 014°29'0 0.0
2015-Jul-01 14:33N 40°43' E 014°29'0 0.0
2015-Jul-01 13:33N 40°43' E 014°29'0 0.0
2015-Jul-01 12:33N 40°43' E 014°29'0 0.0
2015-Jul-01 11:33N 40°43' E 014°29'0 0.0
2015-Jul-01 10:27N 40°43' E 014°29'0 0.0
2015-Jul-01 09:33N 40°43' E 014°29'0 0.0
2015-Jul-01 08:21N 40°43' E 014°29'0 0.0
2015-Jul-01 03:27N 40°43' E 014°29'0 0.0
2015-Jul-01 02:33N 40°43' E 014°29'0 0.0
2015-Jul-01 01:30N 40°43' E 014°29'0 0.0
2015-Jul-01 00:33N 40°43' E 014°29'0 0.0
2015-Jun-30 22:15N 40°43' E 014°29'0 0.0
2015-Jun-30 21:27N 40°43' E 014°29'0 0.0
2015-Jun-30 18:30N 40°43' E 014°29'0 0.0
2015-Jun-30 16:27N 40°43' E 014°29'0 0.0
2015-Jun-30 13:30N 40°43' E 014°29'0 0.0
2015-Jun-30 12:27N 40°43' E 014°29'0 0.0
2015-Jun-30 11:21N 40°43' E 014°29'0 0.0
2015-Jun-30 10:30N 40°43' E 014°29'0 0.0
2015-Jun-30 09:18N 40°43' E 014°29'0 0.0
2015-Jun-30 08:09N 40°43' E 014°29'0 0.0
2015-Jun-29 15:24N 40°43' E 014°29'0 0.0
2015-Jun-29 14:24N 40°43' E 014°29'0 0.0
2015-Jun-29 13:33N 40°43' E 014°29'0 0.0
2015-Jun-29 12:24N 40°43' E 014°29'0 0.0
2015-Jun-29 00:12N 40°43' E 014°29'0 0.0
2015-Jun-28 22:18N 40°43' E 014°29'0 0.0
2015-Jun-28 21:30N 40°43' E 014°29'0 0.0
2015-Jun-28 20:06N 40°43' E 014°29'0 0.0
2015-Jun-28 17:24N 40°43' E 014°29'0 0.0
2015-Jun-28 16:30N 40°43' E 014°29'0 0.0
2015-Jun-28 13:33N 40°43' E 014°29'6 0.6
2015-Jun-28 03:19N 40°40' E 014°21'1011.1
2015-Jun-28 02:25N 40°30' E 014°20'14012.9
2015-Jun-27 15:33N 38°23' E 015°39'9 9.6
2015-Jun-27 14:34N 38°14' E 015°38'1111.2
2015-Jun-27 13:33N 38°03' E 015°36'1110.9
2015-Jun-27 12:34N 37°53' E 015°41'1413.6
2015-Jun-27 11:32N 37°48' E 015°57'  

Dump ship's entire track history